Saint Louis, MO (63119)

11:52 PM CST on January 19, 2017 (GMT -0600)
Webster Groves | | Change Station
Active Advisory: Dense Fog Advisory

Elev 571 ft 38.59 °N, 90.35 °W | Updated 2 minutes ago

Overcast
Overcast
47.1 °F
Feels Like 47 °F
N
0.0
Wind Variable Wind from SW

Today
High -- | Low -- °F
--% Chance of Precip.
Yesterday
High -- | Low -- °F
Precip. -- in
Pressure 29.60 in
Visibility 10.0 miles
Clouds Mostly Cloudy 400 ft
Overcast 11000 ft
Windchill 47 °F
Dew Point 44 °F
Humidity 90%
Rainfall 0.39 in
Snow Depth Not available.
7:15 AM 5:09 PM
Waning Gibbous, 47% visible
SPECI KCPS 200540Z AUTO 26003KT 10SM BKN004 OVC110 08/07 A2960 RMK AO2 RAE21 CIG 003V008 P0001 T00830072
Pressure 29.60 in
Visibility 10.0 miles
Clouds Mostly Cloudy 400 ft
Overcast 11000 ft
Windchill 47 °F
Dew Point 44 °F
Humidity 90%
Rainfall 0.39 in
Snow Depth Not available.
7:15 AM 5:09 PM
Waning Gibbous, 47% visible
SPECI KCPS 200540Z AUTO 26003KT 10SM BKN004 OVC110 08/07 A2960 RMK AO2 RAE21 CIG 003V008 P0001 T00830072

Get Your Daily Forecast Email!

Thanks for signing up!

Be on the lookout for a verification email in your inbox.

You'll start receiving the daily forecast at 8 AM.

×

10-Day Weather Forecast

Almanac

Astronomy

Jan. 19, 2017 Rise Set
Actual Time
Civil Twilight
Nautical Twilight
Astronomical Twilight
Moon
Length of Visible Light
Length of Day
Tomorrow will be .
, % of the Moon is Illuminated

Today's Extremes

State Highs State Lows

Community

WunderPhotos

Upload Photos

1,962,540 photos uploaded!

WunderBlog® & News

Nearby

Air Quality

  Air Quality AQ Index Pollutant
Not available.

Snow Depth

Station Depth Elevation

Earthquake Activity

City Distance Mag. Time & Date
Minimum magnitude displayed is 2.5.

Coastal Water Temperatures

Place Temperature

Stations

Nearby Weather Stations

Station Location Temp. Windchill Dew Point Humidity Wind Precip. Elev Updated Type
                   

Watches & Warnings

Dense Fog Advisory
Issued: 3:37 PM CST Jan. 19, 2017 – National Weather Service

... Dense fog advisory in effect until 8 am CST Friday...

The National Weather Service in Saint Louis has issued a dense
fog advisory... which is in effect until 8 am CST Friday.

* Timing... dense fog will develop this evening and continue
overnight.

* Visibilities... visibilities of one-quarter mile or less at
times are expected.

* Impacts... rapid changes in visibility will cause hazardous
driving conditions.

Precautionary/preparedness actions...

A dense fog advisory is issued when dense fog will substantially
reduce visibilities... to one-quarter mile or less... resulting in
hazardous driving conditions in many areas. Motorists are advised
to use caution and slow down... as objects on and near roadways
will be seen only at close range.



Jpk